ADDS METAR Data INFO
IDs: Format: Raw Decoded Include TAF

Data at: 0714 UTC 24 Jun 2018

KGPI 240655Z AUTO 00000KT 10SM OVC024 13/13 A3007 RMK AO2 SLP182 T01330128 401500122
KGPI 240555Z AUTO 17005KT 10SM BKN022 OVC031 13/13 A3007 RMK AO2 SLP180 60004 T01330128 10139 20133 51006
KGPI 240455Z 16007KT 10SM FEW022 OVC034 13/13 A3006 RMK AO2 RAE0357 SLP178 P0000 T01330128
KGPI 240451Z 15007KT 10SM SCT022 OVC034 13/13 A3006 RMK AO2 RAE0357 P0000
KGPI 240414Z 17008KT 10SM BKN022 OVC031 13/13 A3005 RMK AO2 RAE0357 P0000 T01330128
KGPI 240355Z 16009KT 10SM -RA SCT020 BKN041 OVC060 13/13 A3005 RMK AO2 RAB00E16B37 SLP173 P0000 T01330128
KGPI 240255Z 16008KT 10SM SCT030 BKN036 OVC065 13/13 A3003 RMK AO2 RAE48 SLP168 P0002 60004 T01330133 53006
KGPI 240237Z 17009KT 3SM -RA BR SCT025 BKN031 OVC039 13/13 A3003 RMK AO2 P0002 T01330133
KGPI 240220Z 16008KT 4SM -RA BR BKN026 OVC032 13/13 A3003 RMK AO2 P0001 T01330133
KGPI 240211Z 16008KT 6SM -RA BR BKN030 OVC038 13/13 A3003 RMK AO2 P0001 T01330133
KGPI 240204Z 16010KT 9SM -RA BKN028 OVC035 13/13 A3003 RMK AO2 P0000 T01330128
KGPI 240155Z 16010KT 10SM -RA OVC030 13/13 A3003 RMK AO2 RAB42 SLP166 P0000 T01330133
KGPI 240122Z 15008KT 10SM BKN023 OVC030 13/13 A3002 RMK AO2 T01330133
KGPI 240055Z 16012KT 10SM FEW006 BKN036 OVC046 13/13 A3002 RMK AO2 RAE44 SLP163 P0002 T01330128
KGPI 240052Z 16011KT 10SM FEW006 BKN034 OVC046 13/13 A3002 RMK AO2 RAE44 P0002
KGPI 240040Z 16009KT 10SM -RA SCT006 BKN017 OVC045 13/13 A3002 RMK AO2 P0002 T01330133
KGPI 240018Z 16009KT 3SM -RA BR BKN005 BKN018 OVC025 13/13 A3001 RMK AO2 CIG 004V010 P0002 T01330133
KGPI 240011Z 16008KT 2 1/2SM -RA BR SCT006 BKN018 OVC038 13/13 A3001 RMK AO2 VIS 1 3/4 NE P0001 T01330133
KGPI 232355Z 16010KT 2 1/2SM -RA BR FEW008 FEW018 OVC034 14/13 A3001 RMK AO2 RAB39 SLP161 P0000 60003 T01390133 10150 20128 53002
KGPI 232313Z 16011KT 10SM SCT008 OVC036 14/13 A3000 RMK AO2 T01440128
KGPI 232255Z 17010KT 10SM BKN008 BKN028 OVC065 14/13 A3001 RMK AO2 SLP159 T01440128
KGPI 232251Z 17011KT 10SM BKN009 BKN028 OVC065 14/13 A3001 RMK AO2
KGPI 232229Z 16010KT 10SM SCT009 BKN029 OVC033 15/13 A3000 RMK AO2 T01500133
KGPI 232206Z 16008KT 10SM SCT009 SCT028 OVC035 15/13 A3000 RMK AO2 T01500133
KGPI 232202Z 16008KT 10SM SCT010 BKN028 OVC035 15/13 A3000 RMK AO2 T01500133
KGPI 232155Z 17009KT 10SM BKN010 BKN026 OVC035 15/13 A3000 RMK AO2 SLP153 T01500133
KGPI 232150Z 16009KT 10SM SCT010 BKN026 OVC037 15/13 A3000 RMK AO2
KGPI 232105Z 16007KT 10SM SCT007 BKN011 OVC036 14/14 A2999 RMK AO2 T01440139
KGPI 232055Z 16008KT 10SM SCT007 BKN036 OVC075 14/14 A2999 RMK AO2 RAE43 SLP151 P0001 60003 T01440139 53005
KGPI 232024Z 15009KT 9SM -RA SCT007 OVC034 14/13 A2998 RMK AO2 P0000 T01390133
KGPI 231955Z 15011KT 4SM -RA BR SCT006 BKN017 OVC025 14/13 A2998 RMK AO2 SLP149 P0002 T01390133
KGPI 231935Z 16007KT 4SM -RA BR SCT006 BKN017 OVC027 13/13 A2998 RMK AO2 P0001 T01330128
KGPI 231920Z 16009KT 2 1/2SM -RA BR SCT006 OVC025 13/13 A2998 RMK AO2 P0001 T01330128
KGPI 231906Z 17010KT 4SM -RA BR FEW006 BKN025 OVC036 13/13 A2997 RMK AO2 P0000 T01330128
KGPI 231855Z 16010KT 4SM -RA BR FEW008 SCT027 OVC036 13/13 A2997 RMK AO2 RAB05E16B33 SLP145 P0000 T01330128
KGPI 231853Z 16009KT 4SM -RA BR FEW006 BKN027 OVC036 13/13 A2997 RMK AO2 RAB05E16B33 P0000
KGPI 231834Z 15010KT 5SM -RA BR FEW008 SCT024 OVC033 13/12 A2997 RMK AO2 RAB05E16B33 P0000 T01280122
KGPI 231816Z 16009KT 9SM FEW008 BKN028 OVC034 13/13 A2996 RMK AO2 RAB05E16 P0000 T01330128
KGPI 231809Z 16009KT 7SM -RA FEW020 SCT029 OVC034 13/12 A2996 RMK AO2 RAB05 P0000 T01330122
KGPI 231755Z 16011KT 10SM SCT019 BKN029 OVC034 13/12 A2996 RMK AO2 SLP143 60002 T01330122 10139 20122 53008
KGPI 231655Z 15007KT 10SM SCT008 OVC034 13/13 A2995 RMK AO2 RAB04E20 SLP138 P0000 T01330128
KGPI 231640Z 14007KT 10SM SCT009 OVC035 13/13 A2995 RMK AO2 RAB04E20 P0000 T01330128
KGPI 231555Z 16004KT 4SM BR OVC033 13/12 A2994 RMK AO2 RAB08E54 SLP134 P0002 T01280122
KGPI 231519Z 20005KT 4SM -RA BR FEW009 OVC036 13/12 A2994 RMK AO2 RAB08 P0000 T01330122
KGPI 231455Z 19005KT 10SM FEW012 OVC034 13/12 A2993 RMK AO2 SLP130 T01330117 53010
KGPI 231355Z 21006KT 10SM OVC039 13/11 A2992 RMK AO2 SLP122 T01330111
KGPI 231255Z AUTO 26003KT 10SM OVC045 13/11 A2991 RMK AO2 SLP116 T01280111
KGPI 231155Z AUTO 19004KT 10SM OVC050 13/11 A2990 RMK AO2 SLP112 60000 T01280106 10139 20122 53001
KGPI 231055Z AUTO 18005KT 10SM FEW055 OVC075 12/11 A2990 RMK AO2 SLP113 T01220106
KGPI 230955Z AUTO 16006KT 10SM OVC085 13/11 A2990 RMK AO2 SLP110 T01330106
KGPI 230855Z AUTO 17011KT 10SM OVC090 13/11 A2990 RMK AO2 RAE17 SLP110 P0000 60000 T01330106 58005
KGPI 230755Z AUTO 19006KT 10SM -RA BKN085 OVC110 14/11 A2991 RMK AO2 RAB46 SLP113 P0000 T01390106
KGPI 230655Z AUTO 00000KT 10SM OVC090 13/12 A2991 RMK AO2 SLP117 T01330117 402500122
KGPI 230555Z 14003KT 10SM FEW080 BKN100 13/11 A2991 RMK AO2 SLP120 T01280106 10244 20122 50001
KGPI 230455Z 22004KT 10SM FEW085 14/10 A2993 RMK AO2 SLP127 T01390100
KGPI 230355Z 03011KT 10SM OVC085 16/11 A2993 RMK AO2 LTG DSNT S AND SW SLP126 T01560111
KGPI 230255Z 34006KT 10SM BKN070 BKN110 16/10 A2991 RMK AO2 SLP120 T01610100 53022
KGPI 230155Z VRB06G15KT 10SM CLR 19/10 A2988 RMK AO2 PK WND 35030/0104 LTG DSNT SE AND W SLP110 T01890100
KGPI 230055Z 35007KT 10SM SCT090 OVC120 23/14 A2985 RMK AO2 LTG DSNT NW SLP093 T02330139
KGPI 222355Z 17006KT 10SM FEW120 24/12 A2984 RMK AO2 LTG DSNT NW SLP089 T02440117 10250 20211 58017
KGPI 222255Z 18009KT 10SM FEW048 BKN110 23/12 A2986 RMK AO2 LTG DSNT W AND NW SLP096 T02330117
KGPI 222216Z 17013KT 10SM SCT110 23/13 A2987 RMK AO2 T02280133
KGPI 222155Z 17013KT 10SM VCTS FEW090 SCT110 23/14 A2987 RMK AO2 LTG DSNT NW TSB33E53 SLP102 T02280139
KGPI 222139Z 17011KT 10SM TS FEW070 SCT090 BKN110 23/14 A2988 RMK AO2 TSB33 T02280144
KGPI 222055Z 16013KT 10SM CLR 24/14 A2989 RMK AO2 LTG DSNT SE SLP107 T02440139 58021
KGPI 221955Z 16011KT 10SM FEW110 24/14 A2993 RMK AO2 LTG DSNT SE SLP120 T02440139